Time;durP1;ratioP1;P1;durP2;ratioP2;P2;SDS_P1;SDS_P2;PMS_P1;PMS_P2;Temp;Humidity;BMP_temperature;BMP_pressure;BME280_temperature;BME280_humidity;BME280_pressure;Samples;Min_cycle;Max_cycle;Signal;HPM_P1;HPM_P2
2022/06/18 00:00:15;;;;;;;;;;;21.90;65.70;;;;;;5042255;28;88069;-45
2022/06/18 00:02:41;;;;;;;;;;;21.90;65.70;;;;;;5042575;28;86956;-45
2022/06/18 00:05:07;;;;;;;;;;;22.00;65.70;;;;;;5042495;27;87671;-45
2022/06/18 00:07:37;;;;;;;;;;;21.90;65.60;;;;;;5042354;28;88083;-44
2022/06/18 00:10:04;;;;;;;;;;;21.90;65.60;;;;;;5042528;28;87472;-44
2022/06/18 00:15:17;;;;;;;;;;;21.90;65.70;;;;;;5042847;28;87008;-44
2022/06/18 00:17:43;;;;;;;;;;;21.90;65.80;;;;;;5042241;28;88680;-44
2022/06/18 00:20:11;;;;;;;;;;;21.90;65.90;;;;;;5041953;28;89527;-44
2022/06/18 00:22:36;;;;;;;;;;;21.90;65.90;;;;;;5042346;28;87120;-45
2022/06/18 00:25:06;;;;;;;;;;;21.80;65.80;;;;;;5042647;27;87355;-44
2022/06/18 00:27:31;;;;;;;;;;;21.80;65.90;;;;;;5042136;28;87960;-44
2022/06/18 00:29:57;;;;;;;;;;;21.80;65.80;;;;;;5043068;28;86153;-44
2022/06/18 00:32:22;;;;;;;;;;;21.80;65.80;;;;;;5042100;28;86951;-44
2022/06/18 00:34:48;;;;;;;;;;;21.80;65.80;;;;;;5045050;28;87799;-44
2022/06/18 00:37:16;;;;;;;;;;;21.80;65.90;;;;;;5044586;28;87944;-46
2022/06/18 00:39:42;;;;;;;;;;;21.80;65.80;;;;;;5045549;28;88118;-44
2022/06/18 00:42:13;;;;;;;;;;;21.80;65.90;;;;;;5045919;28;87064;-44
2022/06/18 00:44:39;;;;;;;;;;;21.80;65.80;;;;;;5046125;27;87453;-45
2022/06/18 00:47:08;;;;;;;;;;;21.80;65.90;;;;;;5045363;28;88111;-44
2022/06/18 00:49:37;;;;;;;;;;;21.70;65.90;;;;;;5045553;28;87134;-44
2022/06/18 00:52:06;;;;;;;;;;;21.70;65.90;;;;;;5045625;28;88938;-44
2022/06/18 00:54:34;;;;;;;;;;;21.80;65.90;;;;;;5048850;28;87340;-44
2022/06/18 00:57:07;;;;;;;;;;;21.70;65.80;;;;;;5045798;27;86894;-44
2022/06/18 00:59:39;;;;;;;;;;;21.70;65.80;;;;;;5045278;28;89668;-46
2022/06/18 01:02:06;;;;;;;;;;;21.70;65.90;;;;;;5044783;28;88020;-44
2022/06/18 01:04:33;;;;;;;;;;;21.70;65.90;;;;;;5045261;27;89933;-44
2022/06/18 01:06:59;;;;;;;;;;;21.70;66.00;;;;;;5045048;28;87237;-44
2022/06/18 01:09:25;;;;;;;;;;;21.70;65.90;;;;;;5045387;28;87096;-44
2022/06/18 01:11:51;;;;;;;;;;;21.60;65.90;;;;;;5043593;28;90849;-44
2022/06/18 01:14:17;;;;;;;;;;;21.60;65.90;;;;;;5044783;28;89285;-45
2022/06/18 01:16:42;;;;;;;;;;;21.60;65.90;;;;;;5048335;28;87095;-45
2022/06/18 01:19:13;;;;;;;;;;;21.60;65.90;;;;;;5045653;28;87313;-44
2022/06/18 01:21:41;;;;;;;;;;;21.60;66.10;;;;;;5045232;28;87035;-44
2022/06/18 01:24:15;;;;;;;;;;;21.60;66.10;;;;;;5045134;27;88762;-44
2022/06/18 01:26:41;;;;;;;;;;;21.50;66.10;;;;;;5043917;28;88941;-44
2022/06/18 01:29:06;;;;;;;;;;;21.50;66.10;;;;;;5045156;28;87147;-44
2022/06/18 01:31:32;;;;;;;;;;;21.50;66.00;;;;;;5045053;27;87367;-45
2022/06/18 01:33:58;;;;;;;;;;;21.50;66.10;;;;;;5044808;28;87921;-44
2022/06/18 01:36:26;;;;;;;;;;;21.50;66.10;;;;;;5045002;28;87158;-44
2022/06/18 01:38:51;;;;;;;;;;;21.50;66.10;;;;;;5047776;27;87189;-44
2022/06/18 01:41:52;;;;;;;;;;;21.50;66.10;;;;;;5044715;28;87126;-44
2022/06/18 01:44:40;;;;;;;;;;;21.50;66.20;;;;;;5037819;27;87401;-44
2022/06/18 01:47:08;;;;;;;;;;;21.40;66.20;;;;;;5037987;27;87965;-45
2022/06/18 01:49:41;;;;;;;;;;;21.50;66.10;;;;;;5044442;28;87121;-44
2022/06/18 01:52:08;;;;;;;;;;;21.40;66.10;;;;;;5043975;27;88715;-44
2022/06/18 01:54:54;;;;;;;;;;;21.40;66.10;;;;;;5044238;28;89625;-46
2022/06/18 01:57:25;;;;;;;;;;;21.40;66.10;;;;;;5044202;28;87282;-44
2022/06/18 01:59:52;;;;;;;;;;;21.40;66.10;;;;;;5044384;27;87468;-44
2022/06/18 02:02:18;;;;;;;;;;;21.40;66.10;;;;;;5047174;28;87286;-44
2022/06/18 02:04:44;;;;;;;;;;;21.40;66.70;;;;;;5044586;27;87339;-44
2022/06/18 02:07:09;;;;;;;;;;;21.40;66.10;;;;;;5044127;28;88200;-44
2022/06/18 02:09:37;;;;;;;;;;;21.30;66.10;;;;;;5045014;28;86393;-45
2022/06/18 02:12:05;;;;;;;;;;;21.40;66.20;;;;;;5043979;28;88632;-44
2022/06/18 02:14:32;;;;;;;;;;;21.40;66.20;;;;;;5044016;28;87172;-45
2022/06/18 02:16:58;;;;;;;;;;;21.30;66.20;;;;;;5043862;28;88413;-44
2022/06/18 02:19:24;;;;;;;;;;;21.30;66.10;;;;;;5044453;27;88193;-44
2022/06/18 02:21:52;;;;;;;;;;;21.30;66.20;;;;;;5044120;28;88366;-45
2022/06/18 02:24:18;;;;;;;;;;;21.30;66.20;;;;;;5047257;28;87032;-47
2022/06/18 02:26:45;;;;;;;;;;;21.30;66.20;;;;;;5043681;28;89308;-44
2022/06/18 02:29:23;;;;;;;;;;;21.30;66.20;;;;;;5044201;28;87006;-44
2022/06/18 02:31:49;;;;;;;;;;;21.20;66.10;;;;;;5043981;27;88812;-45
2022/06/18 02:34:16;;;;;;;;;;;21.20;66.20;;;;;;5044295;28;87250;-44
2022/06/18 02:36:42;;;;;;;;;;;21.20;66.20;;;;;;5044138;28;87144;-44
2022/06/18 02:39:08;;;;;;;;;;;21.20;66.10;;;;;;5043840;27;88749;-44
2022/06/18 02:41:34;;;;;;;;;;;21.20;66.20;;;;;;5043061;28;88949;-45
2022/06/18 02:44:00;;;;;;;;;;;21.20;66.20;;;;;;5043902;28;86981;-45
2022/06/18 02:46:26;;;;;;;;;;;21.20;66.30;;;;;;5046713;27;87469;-44
2022/06/18 02:48:52;;;;;;;;;;;21.20;66.20;;;;;;5044043;28;87093;-44
2022/06/18 02:51:18;;;;;;;;;;;21.20;66.20;;;;;;5043935;27;87418;-45
2022/06/18 02:53:43;;;;;;;;;;;21.20;66.20;;;;;;5043522;28;88303;-44
2022/06/18 02:56:09;;;;;;;;;;;21.20;66.20;;;;;;5043832;28;87009;-44
2022/06/18 02:58:37;;;;;;;;;;;21.10;66.10;;;;;;5043262;27;88844;-43
2022/06/18 03:01:05;;;;;;;;;;;21.10;66.10;;;;;;5043228;28;89545;-45
2022/06/18 03:03:32;;;;;;;;;;;21.10;66.10;;;;;;5043551;28;86991;-44
2022/06/18 03:05:57;;;;;;;;;;;21.10;66.20;;;;;;5045568;28;88056;-44
2022/06/18 03:08:24;;;;;;;;;;;21.10;66.20;;;;;;5043822;28;87131;-44
2022/06/18 03:13:36;;;;;;;;;;;21.00;66.20;;;;;;5043356;28;87066;-44
2022/06/18 03:16:02;;;;;;;;;;;21.00;66.20;;;;;;5043416;28;86873;-44
2022/06/18 03:18:29;;;;;;;;;;;21.00;66.20;;;;;;5043694;27;87728;-44
2022/06/18 03:20:54;;;;;;;;;;;21.00;66.30;;;;;;5042962;28;87818;-44
2022/06/18 03:23:21;;;;;;;;;;;21.00;66.30;;;;;;5043884;28;86447;-44
2022/06/18 03:25:47;;;;;;;;;;;21.00;66.30;;;;;;5043452;28;87740;-44
2022/06/18 03:28:14;;;;;;;;;;;21.00;66.30;;;;;;5046136;28;88052;-44
2022/06/18 03:30:40;;;;;;;;;;;21.00;66.30;;;;;;5042762;28;87984;-44
2022/06/18 03:33:05;;;;;;;;;;;21.00;66.30;;;;;;5042802;28;87693;-45
2022/06/18 03:35:31;;;;;;;;;;;20.90;66.30;;;;;;5043397;28;86907;-44
2022/06/18 03:37:56;;;;;;;;;;;20.90;66.20;;;;;;5043265;28;87794;-44
2022/06/18 03:40:22;;;;;;;;;;;20.90;66.30;;;;;;5042428;28;88464;-44
2022/06/18 03:42:48;;;;;;;;;;;20.90;66.30;;;;;;5043088;28;87435;-44
2022/06/18 03:45:13;;;;;;;;;;;20.90;66.30;;;;;;5043114;28;87417;-45
2022/06/18 03:47:39;;;;;;;;;;;20.90;66.30;;;;;;5043371;28;87397;-45
2022/06/18 03:50:05;;;;;;;;;;;20.90;66.30;;;;;;5046031;28;87073;-44
2022/06/18 03:52:31;;;;;;;;;;;20.90;66.40;;;;;;5042544;28;87964;-44
2022/06/18 03:54:56;;;;;;;;;;;20.90;66.30;;;;;;5042004;28;88129;-44
2022/06/18 03:57:22;;;;;;;;;;;20.80;66.30;;;;;;5042671;28;87486;-44
2022/06/18 03:59:48;;;;;;;;;;;20.80;66.40;;;;;;5042502;28;88091;-45
2022/06/18 04:02:13;;;;;;;;;;;20.80;66.30;;;;;;5043061;28;87378;-44
2022/06/18 04:04:39;;;;;;;;;;;20.80;66.40;;;;;;5043051;27;87741;-44
2022/06/18 04:07:05;;;;;;;;;;;20.80;66.50;;;;;;5042085;28;87930;-44
2022/06/18 04:09:31;;;;;;;;;;;20.80;66.50;;;;;;5042626;28;87103;-44
2022/06/18 04:11:58;;;;;;;;;;;20.80;66.50;;;;;;5044803;27;87403;-47
2022/06/18 04:14:24;;;;;;;;;;;20.80;66.40;;;;;;5042179;28;87146;-44
2022/06/18 04:16:49;;;;;;;;;;;20.80;66.50;;;;;;5042737;27;87361;-45
2022/06/18 04:19:15;;;;;;;;;;;20.80;66.40;;;;;;5041314;28;89729;-44
2022/06/18 04:21:41;;;;;;;;;;;20.70;66.30;;;;;;5042777;28;86979;-45
2022/06/18 04:24:06;;;;;;;;;;;20.70;66.40;;;;;;5042554;28;86992;-44
2022/06/18 04:26:32;;;;;;;;;;;20.70;66.40;;;;;;5042287;28;87218;-44
2022/06/18 04:28:57;;;;;;;;;;;20.70;66.40;;;;;;5042622;28;87079;-45
2022/06/18 04:31:23;;;;;;;;;;;20.70;66.40;;;;;;5042410;28;87485;-44
2022/06/18 04:33:48;;;;;;;;;;;20.70;66.40;;;;;;5044552;28;89358;-44
2022/06/18 04:36:29;;;;;;;;;;;20.70;66.50;;;;;;5043052;28;87440;-45
2022/06/18 04:38:55;;;;;;;;;;;20.70;66.50;;;;;;5041763;28;87929;-45
2022/06/18 04:41:20;;;;;;;;;;;20.70;66.50;;;;;;5042137;28;87111;-44
2022/06/18 04:43:46;;;;;;;;;;;20.60;66.40;;;;;;5041578;28;87919;-44
2022/06/18 04:46:11;;;;;;;;;;;20.70;66.40;;;;;;5041859;28;88223;-44
2022/06/18 04:48:37;;;;;;;;;;;20.60;66.40;;;;;;5042653;28;87224;-44
2022/06/18 04:51:02;;;;;;;;;;;20.60;66.40;;;;;;5042350;28;87254;-45
2022/06/18 04:53:29;;;;;;;;;;;20.60;66.40;;;;;;5041846;28;88237;-44
2022/06/18 04:55:54;;;;;;;;;;;20.70;66.40;;;;;;5044737;28;87081;-45
2022/06/18 04:58:20;;;;;;;;;;;20.60;66.30;;;;;;5041510;28;89406;-44
2022/06/18 05:00:45;;;;;;;;;;;20.60;66.80;;;;;;5042797;28;86147;-44
2022/06/18 05:03:16;;;;;;;;;;;20.60;66.20;;;;;;5041951;27;88298;-44
2022/06/18 05:05:41;;;;;;;;;;;20.60;66.30;;;;;;5041173;28;89999;-44
2022/06/18 05:08:07;;;;;;;;;;;20.70;66.20;;;;;;5041664;28;87959;-43
2022/06/18 05:10:32;;;;;;;;;;;20.70;66.30;;;;;;5041745;28;88791;-45
2022/06/18 05:12:58;;;;;;;;;;;20.60;66.30;;;;;;5041336;28;87983;-44
2022/06/18 05:15:24;;;;;;;;;;;20.70;66.30;;;;;;5045041;28;87003;-45
2022/06/18 05:17:50;;;;;;;;;;;20.70;66.30;;;;;;5041673;28;87961;-44
2022/06/18 05:20:18;;;;;;;;;;;20.70;66.30;;;;;;5041872;28;87225;-44
2022/06/18 05:22:43;;;;;;;;;;;20.70;66.40;;;;;;5043684;27;87049;-44
2022/06/18 05:25:10;;;;;;;;;;;20.70;66.30;;;;;;5045268;28;88608;-44
2022/06/18 05:27:36;;;;;;;;;;;20.70;66.40;;;;;;5045059;28;87119;-44
2022/06/18 05:30:02;;;;;;;;;;;20.70;66.30;;;;;;5045315;27;87158;-44
2022/06/18 05:32:27;;;;;;;;;;;20.80;66.40;;;;;;5044009;28;90478;-44
2022/06/18 05:34:53;;;;;;;;;;;20.80;66.40;;;;;;5045157;28;87069;-44
2022/06/18 05:37:24;;;;;;;;;;;20.80;66.30;;;;;;5047797;28;87501;-45
2022/06/18 05:39:50;;;;;;;;;;;20.80;66.50;;;;;;5044611;28;87012;-45
2022/06/18 05:42:15;;;;;;;;;;;20.70;66.40;;;;;;5045244;27;87424;-44
2022/06/18 05:44:41;;;;;;;;;;;20.70;66.40;;;;;;5044600;28;88199;-44
2022/06/18 05:47:14;;;;;;;;;;;20.80;66.40;;;;;;5045178;28;87095;-45
2022/06/18 05:49:39;;;;;;;;;;;20.80;66.40;;;;;;5045504;28;86436;-45
2022/06/18 05:52:05;;;;;;;;;;;20.80;66.50;;;;;;5044409;28;88055;-44
2022/06/18 05:54:30;;;;;;;;;;;20.80;66.50;;;;;;5044670;28;87353;-44
2022/06/18 05:56:56;;;;;;;;;;;20.80;66.50;;;;;;5044180;28;88821;-45
2022/06/18 05:59:21;;;;;;;;;;;20.80;66.50;;;;;;5047329;28;88281;-44
2022/06/18 06:01:47;;;;;;;;;;;20.80;66.50;;;;;;5044941;28;87437;-44
2022/06/18 06:04:12;;;;;;;;;;;20.80;66.50;;;;;;5044180;28;88276;-44
2022/06/18 06:06:38;;;;;;;;;;;20.80;67.10;;;;;;5044659;28;87086;-44
2022/06/18 06:09:04;;;;;;;;;;;20.80;66.40;;;;;;5044537;28;87365;-46
2022/06/18 06:11:29;;;;;;;;;;;20.80;66.40;;;;;;5043910;28;88290;-45
2022/06/18 06:13:57;;;;;;;;;;;20.80;66.40;;;;;;5044691;28;86241;-45
2022/06/18 06:16:23;;;;;;;;;;;20.80;66.50;;;;;;5044519;27;87050;-47
2022/06/18 06:18:48;;;;;;;;;;;20.80;66.50;;;;;;5044036;28;88134;-44
2022/06/18 06:21:14;;;;;;;;;;;20.80;66.50;;;;;;5046753;28;88132;-44
2022/06/18 06:23:40;;;;;;;;;;;20.80;66.40;;;;;;5043844;28;87960;-44
2022/06/18 06:26:13;;;;;;;;;;;20.80;66.40;;;;;;5044184;28;87156;-45
2022/06/18 06:28:42;;;;;;;;;;;20.90;66.40;;;;;;5044569;27;87521;-45
2022/06/18 06:31:08;;;;;;;;;;;20.90;66.40;;;;;;5043700;28;89738;-44
2022/06/18 06:33:34;;;;;;;;;;;20.90;66.30;;;;;;5044063;27;87159;-44
2022/06/18 06:35:59;;;;;;;;;;;20.90;66.40;;;;;;5044323;28;87492;-44
2022/06/18 06:38:25;;;;;;;;;;;20.80;66.40;;;;;;5043996;28;87311;-46
2022/06/18 06:40:50;;;;;;;;;;;20.90;66.50;;;;;;5044118;28;87162;-45
2022/06/18 06:43:17;;;;;;;;;;;20.90;66.40;;;;;;5046539;27;87595;-44
2022/06/18 06:45:43;;;;;;;;;;;20.90;66.40;;;;;;5043294;28;88042;-44
2022/06/18 06:48:09;;;;;;;;;;;20.90;66.40;;;;;;5043896;27;89585;-45
2022/06/18 06:50:34;;;;;;;;;;;20.80;66.30;;;;;;5043242;28;88673;-44
2022/06/18 06:53:00;;;;;;;;;;;20.90;66.40;;;;;;5043772;28;87137;-45
2022/06/18 06:58:14;;;;;;;;;;;20.90;66.30;;;;;;5043673;28;87171;-44
2022/06/18 07:00:41;;;;;;;;;;;20.90;66.30;;;;;;5043836;28;86912;-44
2022/06/18 07:03:08;;;;;;;;;;;20.90;66.30;;;;;;5046783;27;87415;-45
2022/06/18 07:05:34;;;;;;;;;;;20.90;66.20;;;;;;5043166;28;87246;-44
2022/06/18 07:07:59;;;;;;;;;;;20.90;66.20;;;;;;5043716;28;87578;-44
2022/06/18 07:10:25;;;;;;;;;;;20.90;66.20;;;;;;5042651;28;88236;-45
2022/06/18 07:12:50;;;;;;;;;;;20.90;66.10;;;;;;5042897;28;87766;-44
2022/06/18 07:15:17;;;;;;;;;;;20.90;66.10;;;;;;5044090;28;88112;-44
2022/06/18 07:17:42;;;;;;;;;;;20.90;66.10;;;;;;5043163;28;88190;-44
2022/06/18 07:20:16;;;;;;;;;;;20.90;66.10;;;;;;5043404;28;87111;-44
2022/06/18 07:22:41;;;;;;;;;;;20.90;66.10;;;;;;5043420;28;87557;-43
2022/06/18 07:25:07;;;;;;;;;;;20.90;66.10;;;;;;5046242;28;87753;-44
2022/06/18 07:27:34;;;;;;;;;;;20.90;66.10;;;;;;5043894;27;87350;-45
2022/06/18 07:29:59;;;;;;;;;;;20.90;66.10;;;;;;5043135;28;88310;-45
2022/06/18 07:32:25;;;;;;;;;;;20.90;66.10;;;;;;5043315;28;87096;-44
2022/06/18 07:34:53;;;;;;;;;;;20.90;66.00;;;;;;5042499;27;89052;-45
2022/06/18 07:37:20;;;;;;;;;;;20.90;66.00;;;;;;5042602;28;89167;-44
2022/06/18 07:39:45;;;;;;;;;;;20.90;66.00;;;;;;5043133;28;86984;-44
2022/06/18 07:42:12;;;;;;;;;;;20.90;66.00;;;;;;5043328;28;87514;-44
2022/06/18 07:44:38;;;;;;;;;;;20.90;65.90;;;;;;5042215;28;88263;-44
2022/06/18 07:47:03;;;;;;;;;;;21.00;65.80;;;;;;5046059;28;87002;-45
2022/06/18 07:49:29;;;;;;;;;;;21.00;65.90;;;;;;5042451;28;89491;-44
2022/06/18 07:51:55;;;;;;;;;;;21.00;65.90;;;;;;5043519;28;86272;-46
2022/06/18 07:54:20;;;;;;;;;;;21.00;66.00;;;;;;5042974;28;86990;-44
2022/06/18 07:56:46;;;;;;;;;;;21.00;65.90;;;;;;5042320;28;89420;-46
2022/06/18 07:59:12;;;;;;;;;;;20.90;65.80;;;;;;5042252;28;87958;-44
2022/06/18 08:01:38;;;;;;;;;;;21.00;65.90;;;;;;5042685;27;89912;-43
2022/06/18 08:04:04;;;;;;;;;;;21.00;65.80;;;;;;5042402;28;87039;-46
2022/06/18 08:06:30;;;;;;;;;;;21.00;65.90;;;;;;5042735;28;87134;-44
2022/06/18 08:08:55;;;;;;;;;;;21.00;65.90;;;;;;5045318;28;87485;-44
2022/06/18 08:11:21;;;;;;;;;;;21.00;65.80;;;;;;5042373;28;87200;-44
2022/06/18 08:13:48;;;;;;;;;;;20.90;65.80;;;;;;5042419;27;88758;-44
2022/06/18 08:16:15;;;;;;;;;;;20.90;65.90;;;;;;5042823;28;87637;-44
2022/06/18 08:18:41;;;;;;;;;;;21.00;66.00;;;;;;5042242;28;88013;-44
2022/06/18 08:21:13;;;;;;;;;;;21.00;65.90;;;;;;5042769;28;86967;-44
2022/06/18 08:23:38;;;;;;;;;;;21.00;65.90;;;;;;5041357;28;90078;-43
2022/06/18 08:26:04;;;;;;;;;;;21.00;65.80;;;;;;5042619;28;87098;-44
2022/06/18 08:28:30;;;;;;;;;;;21.00;65.80;;;;;;5041065;28;88825;-46
2022/06/18 08:30:56;;;;;;;;;;;21.00;65.90;;;;;;5045198;28;88214;-45
2022/06/18 08:33:21;;;;;;;;;;;21.00;65.80;;;;;;5042431;28;87741;-44
2022/06/18 08:35:47;;;;;;;;;;;21.00;65.60;;;;;;5042019;28;88459;-45
2022/06/18 08:38:13;;;;;;;;;;;21.00;65.70;;;;;;5042354;28;87133;-44
2022/06/18 08:40:54;;;;;;;;;;;21.10;65.70;;;;;;5043041;27;87108;-44
2022/06/18 08:43:32;;;;;;;;;;;21.00;65.60;;;;;;5042174;28;88011;-44
2022/06/18 08:46:16;;;;;;;;;;;21.10;65.50;;;;;;5042154;28;87091;-44
2022/06/18 08:49:02;;;;;;;;;;;21.10;65.50;;;;;;5041685;27;87942;-44
2022/06/18 08:51:34;;;;;;;;;;;21.10;65.50;;;;;;5042023;28;88201;-45
2022/06/18 08:54:10;;;;;;;;;;;21.10;65.40;;;;;;5044991;28;87004;-44
2022/06/18 08:56:36;;;;;;;;;;;21.20;65.40;;;;;;5042121;27;87928;-46
2022/06/18 08:59:04;;;;;;;;;;;21.10;65.30;;;;;;5045540;28;87153;-44
2022/06/18 09:01:33;;;;;;;;;;;21.20;65.50;;;;;;5045816;28;87306;-45
2022/06/18 09:04:04;;;;;;;;;;;21.20;65.30;;;;;;5045181;28;88011;-44
2022/06/18 09:06:42;;;;;;;;;;;21.20;65.40;;;;;;5045921;28;86314;-44
2022/06/18 09:09:07;;;;;;;;;;;21.20;65.40;;;;;;5045619;28;86978;-44
2022/06/18 09:11:42;;;;;;;;;;;21.20;65.40;;;;;;5044490;28;87926;-45
2022/06/18 09:14:14;;;;;;;;;;;21.20;65.40;;;;;;5047464;28;88057;-44
2022/06/18 09:16:43;;;;;;;;;;;21.20;65.40;;;;;;5044776;28;89351;-44
2022/06/18 09:19:12;;;;;;;;;;;21.20;65.40;;;;;;5045172;28;87040;-44
2022/06/18 09:21:43;;;;;;;;;;;21.30;65.40;;;;;;5045403;27;86973;-44
2022/06/18 09:24:11;;;;;;;;;;;21.30;65.40;;;;;;5044799;28;88013;-44
2022/06/18 09:26:42;;;;;;;;;;;21.30;65.50;;;;;;5045187;28;87163;-44
2022/06/18 09:29:18;;;;;;;;;;;21.30;65.50;;;;;;5045083;27;86952;-44
2022/06/18 09:31:52;;;;;;;;;;;21.30;65.50;;;;;;5045121;28;87248;-45
2022/06/18 09:34:20;;;;;;;;;;;21.30;65.50;;;;;;5045070;28;87113;-44
2022/06/18 09:36:48;;;;;;;;;;;21.40;65.30;;;;;;5047561;27;88838;-44
2022/06/18 09:39:19;;;;;;;;;;;21.30;65.40;;;;;;5044349;28;88056;-44
2022/06/18 09:41:57;;;;;;;;;;;21.30;65.40;;;;;;5044854;27;89725;-44
2022/06/18 09:44:25;;;;;;;;;;;21.30;65.50;;;;;;5044549;28;87329;-44
2022/06/18 09:47:00;;;;;;;;;;;21.30;65.40;;;;;;5044965;28;87111;-44
2022/06/18 09:49:25;;;;;;;;;;;21.30;65.40;;;;;;5044738;27;88850;-44
2022/06/18 09:52:04;;;;;;;;;;;21.40;65.30;;;;;;5044950;28;88171;-44
2022/06/18 09:54:36;;;;;;;;;;;21.40;65.20;;;;;;5044839;28;87028;-45
2022/06/18 09:57:02;;;;;;;;;;;21.40;65.20;;;;;;5045311;27;87475;-44
2022/06/18 09:59:32;;;;;;;;;;;21.40;65.30;;;;;;5047064;28;90159;-44
2022/06/18 10:01:58;;;;;;;;;;;21.40;65.30;;;;;;5044804;27;87451;-44
2022/06/18 10:07:15;;;;;;;;;;;21.40;65.40;;;;;;5044167;28;89295;-44
2022/06/18 10:10:04;;;;;;;;;;;21.40;65.40;;;;;;5044225;27;87473;-44
2022/06/18 10:12:34;;;;;;;;;;;21.40;65.40;;;;;;5037541;28;89488;-44
2022/06/18 10:15:05;;;;;;;;;;;21.40;65.40;;;;;;5042903;28;87200;-43
2022/06/18 10:17:39;;;;;;;;;;;21.40;65.40;;;;;;5044345;27;88721;-44
2022/06/18 10:20:23;;;;;;;;;;;21.40;65.40;;;;;;5044128;28;88013;-44
2022/06/18 10:23:15;;;;;;;;;;;21.40;65.50;;;;;;5047960;27;86513;-44
2022/06/18 10:25:59;;;;;;;;;;;21.40;65.50;;;;;;5026569;28;88266;-44
2022/06/18 10:28:43;;;;;;;;;;;21.40;65.50;;;;;;5044579;27;87375;-45
2022/06/18 10:31:20;;;;;;;;;;;21.40;65.60;;;;;;5043760;27;87877;-43
2022/06/18 10:33:55;;;;;;;;;;;21.40;65.60;;;;;;5043866;28;88065;-44
2022/06/18 10:36:23;;;;;;;;;;;21.40;65.60;;;;;;5044175;28;87110;-44
2022/06/18 10:38:57;;;;;;;;;;;21.40;66.20;;;;;;5044223;28;87518;-44
2022/06/18 10:41:26;;;;;;;;;;;21.40;65.60;;;;;;5043700;28;87212;-44
2022/06/18 10:43:54;;;;;;;;;;;21.40;65.60;;;;;;5043849;28;87025;-44
2022/06/18 10:46:21;;;;;;;;;;;21.50;65.60;;;;;;5046705;28;86873;-44
2022/06/18 10:48:48;;;;;;;;;;;21.50;65.60;;;;;;5044425;28;86435;-43
2022/06/18 10:51:19;;;;;;;;;;;21.50;65.70;;;;;;5043521;28;87270;-44
2022/06/18 10:53:49;;;;;;;;;;;21.50;65.60;;;;;;5043119;28;90955;-44
2022/06/18 10:56:15;;;;;;;;;;;21.50;65.60;;;;;;5042817;28;88069;-46
2022/06/18 10:58:51;;;;;;;;;;;21.50;65.60;;;;;;5043655;27;89838;-44
2022/06/18 11:01:21;;;;;;;;;;;21.60;65.60;;;;;;5043218;28;89663;-44
2022/06/18 11:03:55;;;;;;;;;;;21.60;65.50;;;;;;5043443;28;87208;-44
2022/06/18 11:06:21;;;;;;;;;;;21.60;65.50;;;;;;5043696;27;87089;-44
2022/06/18 11:08:54;;;;;;;;;;;21.60;65.60;;;;;;5046156;28;88119;-45
2022/06/18 11:11:21;;;;;;;;;;;21.60;65.60;;;;;;5042788;27;88842;-44
2022/06/18 11:13:48;;;;;;;;;;;21.60;65.70;;;;;;5043450;28;87084;-46
2022/06/18 11:16:24;;;;;;;;;;;21.60;65.70;;;;;;5043162;28;87052;-45
2022/06/18 11:18:50;;;;;;;;;;;21.60;65.70;;;;;;5043086;27;87940;-44
2022/06/18 11:21:24;;;;;;;;;;;21.60;65.70;;;;;;5041792;28;88964;-45
2022/06/18 11:23:55;;;;;;;;;;;21.60;65.80;;;;;;5043459;28;87095;-44
2022/06/18 11:26:22;;;;;;;;;;;21.70;65.70;;;;;;5043328;27;88586;-44
2022/06/18 11:28:49;;;;;;;;;;;21.60;65.70;;;;;;5045362;28;89449;-44
2022/06/18 11:31:23;;;;;;;;;;;21.60;65.80;;;;;;5043577;27;87331;-44
2022/06/18 11:33:57;;;;;;;;;;;21.60;65.80;;;;;;5042829;28;88151;-44
2022/06/18 11:36:31;;;;;;;;;;;21.60;65.80;;;;;;5043122;28;87122;-44
2022/06/18 11:38:58;;;;;;;;;;;21.60;65.70;;;;;;5043271;27;88695;-44
2022/06/18 11:41:23;;;;;;;;;;;21.50;65.60;;;;;;5042722;28;87124;-44
2022/06/18 11:43:51;;;;;;;;;;;21.50;65.60;;;;;;5043203;28;87143;-44
2022/06/18 11:46:25;;;;;;;;;;;21.50;65.60;;;;;;5042615;27;88207;-44
2022/06/18 11:48:56;;;;;;;;;;;21.50;65.70;;;;;;5042567;28;88228;-45
2022/06/18 11:51:32;;;;;;;;;;;21.50;65.70;;;;;;5046164;28;87003;-44
2022/06/18 11:54:15;;;;;;;;;;;21.50;65.80;;;;;;5042370;28;87975;-45
2022/06/18 11:56:44;;;;;;;;;;;21.50;65.70;;;;;;5042575;28;87170;-45
2022/06/18 11:59:28;;;;;;;;;;;21.50;65.80;;;;;;5042910;28;87083;-45
2022/06/18 12:01:55;;;;;;;;;;;21.50;65.70;;;;;;5042833;27;87986;-45
2022/06/18 12:04:36;;;;;;;;;;;21.50;65.70;;;;;;5042977;28;86297;-46
2022/06/18 12:07:07;;;;;;;;;;;21.50;65.70;;;;;;5042620;27;87271;-44
2022/06/18 12:09:33;;;;;;;;;;;21.50;65.70;;;;;;5042693;28;87331;-44
2022/06/18 12:12:04;;;;;;;;;;;21.50;65.90;;;;;;5041566;28;88090;-44
2022/06/18 12:14:49;;;;;;;;;;;21.50;65.90;;;;;;5045569;27;88341;-44
2022/06/18 12:17:19;;;;;;;;;;;21.50;65.90;;;;;;5043011;28;86870;-45
2022/06/18 12:19:52;;;;;;;;;;;21.50;65.90;;;;;;5042390;28;87454;-44
2022/06/18 12:22:17;;;;;;;;;;;21.50;65.80;;;;;;5042111;28;88605;-45
2022/06/18 12:24:59;;;;;;;;;;;21.60;65.50;;;;;;5042696;28;87202;-45
2022/06/18 12:27:26;;;;;;;;;;;21.60;65.50;;;;;;5042279;28;88943;-44
2022/06/18 12:29:54;;;;;;;;;;;21.60;65.60;;;;;;5042635;28;86552;-44
2022/06/18 12:32:34;;;;;;;;;;;21.60;65.50;;;;;;5045225;27;87372;-46
2022/06/18 12:34:59;;;;;;;;;;;21.60;65.50;;;;;;5046102;28;87552;-44
2022/06/18 12:37:31;;;;;;;;;;;21.70;65.50;;;;;;5047707;28;90765;-45
2022/06/18 12:40:29;;;;;;;;;;;21.70;65.40;;;;;;5045991;28;87616;-44
2022/06/18 12:43:10;;;;;;;;;;;21.70;65.50;;;;;;5022006;28;88003;-44
2022/06/18 12:45:39;;;;;;;;;;;21.70;65.60;;;;;;5045888;28;87098;-44
2022/06/18 12:48:23;;;;;;;;;;;21.70;65.50;;;;;;5045681;28;88956;-44
2022/06/18 12:51:01;;;;;;;;;;;21.80;65.60;;;;;;5045598;27;87135;-44
2022/06/18 12:53:32;;;;;;;;;;;21.80;65.50;;;;;;5045878;28;87123;-44
2022/06/18 12:55:58;;;;;;;;;;;21.80;65.40;;;;;;5046301;28;86712;-46
2022/06/18 12:58:35;;;;;;;;;;;21.80;65.40;;;;;;5045416;28;88102;-45
2022/06/18 13:01:19;;;;;;;;;;;21.90;65.50;;;;;;5048295;28;87067;-44
2022/06/18 13:04:01;;;;;;;;;;;21.80;65.20;;;;;;5044264;28;90376;-45
2022/06/18 13:06:33;;;;;;;;;;;21.90;65.20;;;;;;5045500;28;87505;-44
2022/06/18 13:08:59;;;;;;;;;;;21.90;65.10;;;;;;5045545;27;89002;-44
2022/06/18 13:11:32;;;;;;;;;;;21.90;65.10;;;;;;5044619;28;88808;-44
2022/06/18 13:14:00;;;;;;;;;;;21.90;65.00;;;;;;5045215;28;87111;-44
2022/06/18 13:16:43;;;;;;;;;;;22.00;64.90;;;;;;5045525;28;87486;-44
2022/06/18 13:19:13;;;;;;;;;;;22.00;64.90;;;;;;5045070;28;88132;-46
2022/06/18 13:21:40;;;;;;;;;;;22.00;64.90;;;;;;5045848;28;86329;-44
2022/06/18 13:29:37;;;;;;;;;;;22.10;64.80;;;;;;5044778;28;88123;-45
2022/06/18 13:32:11;;;;;;;;;;;22.10;64.80;;;;;;5044536;28;88527;-44
2022/06/18 13:34:37;;;;;;;;;;;22.10;64.60;;;;;;5045242;28;86869;-45
2022/06/18 13:37:12;;;;;;;;;;;22.10;64.50;;;;;;5045012;27;89073;-45
2022/06/18 13:39:56;;;;;;;;;;;22.10;64.30;;;;;;5044723;28;89402;-44
2022/06/18 13:42:40;;;;;;;;;;;22.10;64.20;;;;;;5044374;27;87117;-44
2022/06/18 13:45:06;;;;;;;;;;;22.20;64.20;;;;;;5047637;27;87466;-43
2022/06/18 13:47:43;;;;;;;;;;;22.20;64.20;;;;;;5045271;28;86312;-45
2022/06/18 13:50:12;;;;;;;;;;;22.20;64.10;;;;;;5045045;28;86913;-44
2022/06/18 13:52:38;;;;;;;;;;;22.20;64.10;;;;;;5044706;28;87904;-44
2022/06/18 13:55:04;;;;;;;;;;;22.20;63.90;;;;;;5043896;28;88109;-45
2022/06/18 13:57:36;;;;;;;;;;;22.20;63.90;;;;;;5044936;27;88230;-44
2022/06/18 14:00:04;;;;;;;;;;;22.20;63.70;;;;;;5044427;28;88047;-44
2022/06/18 14:02:30;;;;;;;;;;;22.20;63.80;;;;;;5044487;28;87082;-45
2022/06/18 14:04:57;;;;;;;;;;;22.30;63.50;;;;;;5044792;28;87557;-44
2022/06/18 14:07:25;;;;;;;;;;;22.30;63.00;;;;;;5047115;28;87875;-45
2022/06/18 14:09:53;;;;;;;;;;;22.30;62.90;;;;;;5044635;27;87435;-44
2022/06/18 14:12:24;;;;;;;;;;;22.30;63.10;;;;;;5044213;28;88913;-44
2022/06/18 14:15:00;;;;;;;;;;;22.40;63.00;;;;;;5044338;28;87055;-44
2022/06/18 14:17:36;;;;;;;;;;;22.40;62.90;;;;;;5044536;27;87475;-46
2022/06/18 14:20:02;;;;;;;;;;;22.40;62.80;;;;;;5043341;28;91472;-45
2022/06/18 14:22:29;;;;;;;;;;;22.40;63.30;;;;;;5044215;28;87095;-44
2022/06/18 14:24:58;;;;;;;;;;;22.40;62.60;;;;;;5044561;27;87547;-45
2022/06/18 14:27:23;;;;;;;;;;;22.50;62.50;;;;;;5043760;28;89637;-46
2022/06/18 14:29:49;;;;;;;;;;;22.50;62.40;;;;;;5047242;28;87070;-44
2022/06/18 14:32:38;;;;;;;;;;;22.50;62.30;;;;;;5042519;28;91795;-45
2022/06/18 14:35:06;;;;;;;;;;;22.50;62.20;;;;;;5023401;28;87150;-44
2022/06/18 14:37:37;;;;;;;;;;;22.50;62.00;;;;;;5044773;28;87597;-44
2022/06/18 14:40:03;;;;;;;;;;;22.50;62.00;;;;;;5044041;28;88040;-44
2022/06/18 14:42:47;;;;;;;;;;;22.50;62.00;;;;;;5044213;28;87119;-43